createdAt,value
2023-08-06T00:00:12.299Z,93465.31
2023-08-06T00:01:09.156Z,93381.97
2023-08-06T00:02:06.111Z,93420.59
2023-08-06T00:03:03.165Z,93370.00
2023-08-06T00:04:01.230Z,93446.75
2023-08-06T00:04:58.124Z,93490.59
2023-08-06T00:05:55.070Z,93404.22
2023-08-06T00:06:51.913Z,93505.97
2023-08-06T00:07:49.933Z,93498.81
2023-08-06T00:08:46.803Z,93525.13
2023-08-06T00:09:43.662Z,93509.84
2023-08-06T00:10:42.691Z,93543.78
2023-08-06T00:11:39.529Z,93483.59
2023-08-06T00:12:36.333Z,93470.28
2023-08-06T00:13:33.165Z,93466.56
2023-08-06T00:14:30.001Z,93488.94
2023-08-06T00:15:26.881Z,93456.06
2023-08-06T00:16:23.871Z,93522.47
2023-08-06T00:17:21.219Z,93454.81
2023-08-06T00:18:18.128Z,93361.78
2023-08-06T00:19:15.394Z,93531.69
2023-08-06T00:20:12.405Z,93506.72
2023-08-06T00:21:09.537Z,93495.19
2023-08-06T00:22:06.556Z,93477.72
2023-08-06T00:23:03.660Z,93429.69
2023-08-06T00:24:00.526Z,93511.41
2023-08-06T00:24:58.682Z,93444.59
2023-08-06T00:25:55.644Z,93427.16
2023-08-06T00:26:52.453Z,93530.00
2023-08-06T00:27:49.238Z,93424.19
2023-08-06T00:28:46.086Z,93388.97
2023-08-06T00:29:42.920Z,93475.63
2023-08-06T00:30:39.790Z,93456.28
2023-08-06T00:31:36.643Z,93424.00
2023-08-06T00:32:33.538Z,93407.88
2023-08-06T00:33:30.387Z,93466.09
2023-08-06T00:34:27.225Z,93505.53
2023-08-06T00:35:24.070Z,93422.94
2023-08-06T00:36:20.988Z,93486.41
2023-08-06T00:37:18.525Z,93411.72
2023-08-06T00:38:15.566Z,93486.06
2023-08-06T00:39:12.406Z,93279.38
2023-08-06T00:40:11.971Z,93342.75
2023-08-06T00:41:08.873Z,93477.22
2023-08-06T00:42:05.839Z,93479.78
2023-08-06T00:43:02.694Z,93453.31
2023-08-06T00:43:59.593Z,93485.13
2023-08-06T00:44:56.482Z,93487.16
2023-08-06T00:45:53.667Z,93464.88
2023-08-06T00:46:50.946Z,93499.00
2023-08-06T00:47:48.740Z,93499.41
2023-08-06T00:48:45.816Z,93415.38
2023-08-06T00:49:43.049Z,93492.72
2023-08-06T00:50:40.013Z,93471.31
2023-08-06T00:51:37.187Z,93346.28
2023-08-06T00:52:35.163Z,93462.16
2023-08-06T00:53:32.190Z,93456.16
2023-08-06T00:54:29.838Z,93470.56
2023-08-06T00:55:27.276Z,93397.16
2023-08-06T00:56:25.484Z,93382.34
2023-08-06T00:57:27.114Z,93417.41
2023-08-06T00:58:24.127Z,93482.88
2023-08-06T00:59:21.087Z,93495.41
2023-08-06T01:00:17.921Z,93428.44
2023-08-06T01:01:15.107Z,93409.44
2023-08-06T01:02:12.029Z,93378.91
2023-08-06T01:03:09.033Z,93339.41
2023-08-06T01:04:05.854Z,93397.69
2023-08-06T01:05:02.694Z,93469.81
2023-08-06T01:05:59.644Z,93395.50
2023-08-06T01:07:38.590Z,93413.56
2023-08-06T01:09:02.517Z,93398.59
2023-08-06T01:10:12.942Z,93454.72
2023-08-06T01:11:20.811Z,93384.63
2023-08-06T01:12:51.474Z,93451.63
2023-08-06T01:13:52.692Z,93438.88
2023-08-06T01:15:01.856Z,93365.56
2023-08-06T01:16:00.977Z,93420.72
2023-08-06T01:16:59.837Z,93378.53
2023-08-06T01:17:57.330Z,93377.97
2023-08-06T01:18:54.225Z,93465.56
2023-08-06T01:19:51.072Z,93467.94
2023-08-06T01:20:47.882Z,93453.22
2023-08-06T01:21:44.799Z,93406.63
2023-08-06T01:22:41.661Z,93390.44
2023-08-06T01:23:39.109Z,93391.00
2023-08-06T01:24:36.534Z,93338.56
2023-08-06T01:25:58.938Z,93319.00
2023-08-06T01:27:11.433Z,93370.06
2023-08-06T01:28:41.622Z,93464.06
2023-08-06T01:29:42.999Z,93488.38
2023-08-06T01:30:43.013Z,93396.38
2023-08-06T01:31:42.816Z,93452.41
2023-08-06T01:32:45.592Z,93386.19
2023-08-06T01:33:46.384Z,93458.66
2023-08-06T01:34:47.306Z,93420.50
2023-08-06T01:35:45.522Z,93441.31
2023-08-06T01:36:43.177Z,93450.00
2023-08-06T01:37:40.278Z,93454.84
2023-08-06T01:38:37.062Z,93442.41
2023-08-06T01:39:36.982Z,93430.34
2023-08-06T01:40:34.306Z,93443.50
2023-08-06T01:41:31.130Z,93404.94
2023-08-06T01:42:27.989Z,93444.03
2023-08-06T01:43:24.835Z,93372.47
2023-08-06T01:44:21.776Z,93394.47
2023-08-06T01:45:18.616Z,93418.88
2023-08-06T01:46:15.590Z,93423.91
2023-08-06T01:47:12.760Z,93354.28
2023-08-06T01:48:09.718Z,93371.72
2023-08-06T01:49:06.500Z,93423.84
2023-08-06T01:50:03.965Z,93446.25
2023-08-06T01:51:00.906Z,93443.97
2023-08-06T01:51:57.771Z,93433.63
2023-08-06T01:52:54.751Z,93437.81
2023-08-06T01:53:51.552Z,93405.06
2023-08-06T01:54:48.431Z,93375.84
2023-08-06T01:55:49.861Z,93372.66
2023-08-06T01:56:46.739Z,93443.31
2023-08-06T01:57:43.636Z,93394.66
2023-08-06T01:58:40.567Z,93374.13
2023-08-06T01:59:37.453Z,93357.22
2023-08-06T02:00:34.332Z,93338.53
2023-08-06T02:01:31.314Z,93411.59
2023-08-06T02:02:28.330Z,93374.00
2023-08-06T02:03:25.322Z,93404.13
2023-08-06T02:04:22.189Z,93398.44
2023-08-06T02:05:18.990Z,93347.91
2023-08-06T02:06:15.848Z,93369.47
2023-08-06T02:07:12.736Z,93369.41
2023-08-06T02:08:09.765Z,93362.56
2023-08-06T02:09:06.565Z,93410.84
2023-08-06T02:10:03.440Z,93335.13
2023-08-06T02:11:00.625Z,93338.06
2023-08-06T02:11:57.554Z,93320.38
2023-08-06T02:12:54.338Z,93337.97
2023-08-06T02:13:51.177Z,93393.91
2023-08-06T02:14:47.947Z,93399.06
2023-08-06T02:15:46.144Z,93301.75
2023-08-06T02:16:43.036Z,93343.47
2023-08-06T02:17:39.865Z,93358.44
2023-08-06T02:18:36.712Z,93308.84
2023-08-06T02:19:33.650Z,93393.72
2023-08-06T02:20:30.490Z,93397.75
2023-08-06T02:21:27.295Z,93303.44
2023-08-06T02:22:24.432Z,93370.91
2023-08-06T02:23:21.259Z,93420.91
2023-08-06T02:24:18.074Z,93334.69
2023-08-06T02:25:15.063Z,93412.34
2023-08-06T02:26:12.184Z,93406.19
2023-08-06T02:27:09.064Z,93427.91
2023-08-06T02:28:06.051Z,93403.59
2023-08-06T02:29:02.939Z,93367.03
2023-08-06T02:29:59.737Z,93374.34
2023-08-06T02:30:56.529Z,93422.38
2023-08-06T02:31:54.015Z,93322.25
2023-08-06T02:32:51.027Z,93409.28
2023-08-06T02:33:47.903Z,93339.91
2023-08-06T02:34:44.789Z,93289.00
2023-08-06T02:35:41.648Z,93336.97
2023-08-06T02:36:38.500Z,93373.59
2023-08-06T02:37:35.949Z,93353.09
2023-08-06T02:38:33.659Z,93383.38
2023-08-06T02:39:30.543Z,93314.28
2023-08-06T02:40:27.414Z,93375.56
2023-08-06T02:41:24.307Z,93374.16
2023-08-06T02:42:21.101Z,93227.28
2023-08-06T02:43:17.973Z,93400.41
2023-08-06T02:44:14.788Z,93365.19
2023-08-06T02:45:11.585Z,93369.94
2023-08-06T02:46:08.459Z,93440.75
2023-08-06T02:47:05.716Z,93439.88
2023-08-06T02:48:03.756Z,93432.00
2023-08-06T02:49:00.698Z,93423.06
2023-08-06T02:49:57.496Z,93338.38
2023-08-06T02:50:54.559Z,93412.09
2023-08-06T02:51:51.619Z,93343.00
2023-08-06T02:52:48.594Z,93421.31
2023-08-06T02:53:45.453Z,93337.44
2023-08-06T02:54:42.323Z,93309.38
2023-08-06T02:55:39.127Z,93347.78
2023-08-06T02:56:35.995Z,93318.66
2023-08-06T02:57:32.889Z,93274.53
2023-08-06T02:58:29.721Z,93379.91
2023-08-06T02:59:26.568Z,93310.06
2023-08-06T03:00:23.443Z,93291.19
2023-08-06T03:01:20.548Z,93281.03
2023-08-06T03:02:17.415Z,93246.66
2023-08-06T03:03:14.246Z,93304.69
2023-08-06T03:04:11.131Z,93365.13
2023-08-06T03:05:08.599Z,93366.22
2023-08-06T03:06:05.510Z,93331.28
2023-08-06T03:07:02.318Z,93365.47
2023-08-06T03:07:59.135Z,93355.97
2023-08-06T03:08:56.081Z,93230.91
2023-08-06T03:09:52.888Z,93281.66
2023-08-06T03:10:50.741Z,93292.34
2023-08-06T03:11:47.587Z,93237.78
2023-08-06T03:12:44.486Z,93272.41
2023-08-06T03:13:41.305Z,93247.69
2023-08-06T03:14:38.177Z,93255.22
2023-08-06T03:15:36.314Z,93354.50
2023-08-06T03:16:33.177Z,93272.25
2023-08-06T03:17:30.080Z,93349.91
2023-08-06T03:18:27.558Z,93377.22
2023-08-06T03:19:24.406Z,93294.59
2023-08-06T03:20:21.287Z,93347.19
2023-08-06T03:21:18.194Z,93275.25
2023-08-06T03:22:15.023Z,93314.97
2023-08-06T03:23:11.840Z,93234.75
2023-08-06T03:24:08.967Z,93176.06
2023-08-06T03:25:06.232Z,93309.31
2023-08-06T03:26:06.203Z,93258.47
2023-08-06T03:27:03.046Z,93373.13
2023-08-06T03:27:59.942Z,93295.06
2023-08-06T03:28:56.793Z,93351.44
2023-08-06T03:29:53.739Z,93196.97
2023-08-06T03:31:00.442Z,93348.41
2023-08-06T03:31:57.301Z,93344.50
2023-08-06T03:32:54.157Z,93358.47
2023-08-06T03:33:51.061Z,93346.88
2023-08-06T03:34:47.946Z,93268.25
2023-08-06T03:35:44.837Z,93371.25
2023-08-06T03:36:42.203Z,93316.22
2023-08-06T03:37:39.053Z,93190.22
2023-08-06T03:38:35.830Z,93316.56
2023-08-06T03:39:32.649Z,93382.28
2023-08-06T03:40:29.472Z,93388.28
2023-08-06T03:41:26.375Z,93306.56
2023-08-06T03:42:23.159Z,93358.03
2023-08-06T03:43:20.138Z,93307.19
2023-08-06T03:44:16.998Z,93305.28
2023-08-06T03:45:13.869Z,93380.50
2023-08-06T03:46:10.749Z,93374.66
2023-08-06T03:47:07.715Z,93387.41
2023-08-06T03:48:04.995Z,93377.16
2023-08-06T03:49:02.222Z,93375.00
2023-08-06T03:49:59.360Z,93391.88
2023-08-06T03:50:56.391Z,93303.97
2023-08-06T03:51:53.407Z,93369.53
2023-08-06T03:52:50.393Z,93376.63
2023-08-06T03:53:47.346Z,93330.03
2023-08-06T03:54:44.459Z,93390.63
2023-08-06T03:55:41.288Z,93390.19
2023-08-06T03:56:38.078Z,93400.25
2023-08-06T03:57:34.909Z,93398.72
2023-08-06T03:58:31.770Z,93381.72
2023-08-06T03:59:28.619Z,93191.72
2023-08-06T04:00:25.417Z,93388.38
2023-08-06T04:01:22.275Z,93325.09
2023-08-06T04:02:19.074Z,93301.97
2023-08-06T04:03:15.979Z,93322.25
2023-08-06T04:04:13.082Z,93405.06
2023-08-06T04:05:10.318Z,93320.06
2023-08-06T04:06:09.076Z,93336.88
2023-08-06T04:07:06.128Z,93332.47
2023-08-06T04:08:02.951Z,93408.91
2023-08-06T04:08:59.762Z,93149.63
2023-08-06T04:09:59.428Z,93375.94
2023-08-06T04:10:56.344Z,93322.47
2023-08-06T04:11:53.684Z,93383.69
2023-08-06T04:12:50.762Z,93367.19
2023-08-06T04:13:47.588Z,93359.78
2023-08-06T04:14:44.413Z,93396.94
2023-08-06T04:15:41.271Z,93411.69
2023-08-06T04:16:38.263Z,93388.41
2023-08-06T04:17:35.153Z,93407.19
2023-08-06T04:18:32.054Z,93344.03
2023-08-06T04:19:28.975Z,93340.91
2023-08-06T04:20:26.074Z,93332.78
2023-08-06T04:21:22.940Z,93420.66
2023-08-06T04:22:20.146Z,93413.22
2023-08-06T04:23:17.037Z,93382.56
2023-08-06T04:24:13.841Z,93382.13
2023-08-06T04:25:10.869Z,93253.13
2023-08-06T04:26:07.701Z,93368.38
2023-08-06T04:27:04.961Z,93289.78
2023-08-06T04:28:01.849Z,93286.81
2023-08-06T04:29:01.236Z,93311.56
2023-08-06T04:29:58.147Z,93389.63
2023-08-06T04:30:55.335Z,93399.84
2023-08-06T04:31:52.393Z,93325.25
2023-08-06T04:32:51.821Z,93340.16
2023-08-06T04:33:48.662Z,93310.19
2023-08-06T04:34:45.547Z,93353.47
2023-08-06T04:36:01.049Z,93359.81
2023-08-06T04:36:57.892Z,93288.31
2023-08-06T04:37:54.711Z,93385.59
2023-08-06T04:38:51.557Z,93347.38
2023-08-06T04:39:48.411Z,93383.22
2023-08-06T04:40:45.248Z,93328.25
2023-08-06T04:41:42.075Z,93357.09
2023-08-06T04:42:38.962Z,93342.22
2023-08-06T04:43:35.950Z,93372.59
2023-08-06T04:44:32.759Z,93311.06
2023-08-06T04:45:29.918Z,93330.84
2023-08-06T04:46:26.749Z,93293.63
2023-08-06T04:47:23.605Z,93351.38
2023-08-06T04:48:20.748Z,93331.38
2023-08-06T04:49:19.263Z,93358.22
2023-08-06T04:50:16.101Z,93183.81
2023-08-06T04:51:12.882Z,93293.31
2023-08-06T04:52:09.686Z,93309.19
2023-08-06T04:53:06.505Z,93307.78
2023-08-06T04:54:03.402Z,93295.34
2023-08-06T04:55:00.326Z,93317.84
2023-08-06T04:55:57.138Z,93327.06
2023-08-06T04:56:54.035Z,93260.50
2023-08-06T04:57:50.801Z,93289.50
2023-08-06T04:58:47.634Z,93266.28
2023-08-06T04:59:44.471Z,93233.78
2023-08-06T05:00:41.453Z,93199.56
2023-08-06T05:01:38.377Z,93245.84
2023-08-06T05:02:35.891Z,93320.25
2023-08-06T05:03:32.978Z,93106.44
2023-08-06T05:04:29.900Z,93252.47
2023-08-06T05:05:26.797Z,93263.47
2023-08-06T05:06:23.632Z,93322.91
2023-08-06T05:07:20.510Z,93293.66
2023-08-06T05:08:18.024Z,93241.94
2023-08-06T05:09:14.879Z,93327.16
2023-08-06T05:10:11.743Z,93257.81
2023-08-06T05:11:08.642Z,93097.50
2023-08-06T05:12:06.095Z,93228.69
2023-08-06T05:13:03.033Z,93318.50
2023-08-06T05:13:59.960Z,93318.34
2023-08-06T05:14:56.756Z,93223.22
2023-08-06T05:15:56.486Z,93336.94
2023-08-06T05:16:53.396Z,93323.06
2023-08-06T05:17:50.275Z,93261.25
2023-08-06T05:18:47.209Z,93326.34
2023-08-06T05:19:44.158Z,93137.28
2023-08-06T05:20:43.552Z,93331.06
2023-08-06T05:21:40.403Z,93288.00
2023-08-06T05:22:37.234Z,93186.59
2023-08-06T05:23:34.235Z,93331.75
2023-08-06T05:24:31.160Z,93270.19
2023-08-06T05:25:28.086Z,93307.59
2023-08-06T05:26:24.906Z,93318.38
2023-08-06T05:27:21.887Z,93331.78
2023-08-06T05:28:18.747Z,93268.75
2023-08-06T05:29:15.555Z,93324.84
2023-08-06T05:30:12.590Z,93243.88
2023-08-06T05:31:09.420Z,93299.44
2023-08-06T05:32:06.629Z,93252.72
2023-08-06T05:33:03.652Z,93296.69
2023-08-06T05:34:01.180Z,93250.78
2023-08-06T05:34:57.986Z,93298.56
2023-08-06T05:35:54.818Z,93215.47
2023-08-06T05:36:51.642Z,93173.19
2023-08-06T05:37:48.522Z,93306.09
2023-08-06T05:38:45.357Z,93303.16
2023-08-06T05:39:42.209Z,93301.91
2023-08-06T05:40:39.098Z,93229.25
2023-08-06T05:41:35.983Z,93299.81
2023-08-06T05:42:32.832Z,93235.72
2023-08-06T05:43:29.816Z,93291.69
2023-08-06T05:44:26.658Z,93094.75
2023-08-06T05:45:23.514Z,93267.22
2023-08-06T05:47:34.407Z,93276.13
2023-08-06T05:48:31.344Z,93211.25
2023-08-06T05:49:28.353Z,93080.66
2023-08-06T05:50:25.540Z,93221.50
2023-08-06T05:51:22.407Z,93226.19
2023-08-06T05:52:19.228Z,93283.63
2023-08-06T05:53:16.088Z,93238.69
2023-08-06T05:54:13.021Z,93290.38
2023-08-06T05:55:09.919Z,93289.00
2023-08-06T05:56:06.772Z,93293.91
2023-08-06T05:57:03.920Z,93222.97
2023-08-06T05:58:01.158Z,93269.97
2023-08-06T05:58:58.090Z,93285.09
2023-08-06T05:59:54.937Z,93292.66
2023-08-06T06:00:52.569Z,93233.25
2023-08-06T06:01:49.468Z,93291.34
2023-08-06T06:02:47.250Z,93277.25
2023-08-06T06:03:44.245Z,93255.59
2023-08-06T06:04:41.985Z,93293.31
2023-08-06T06:05:42.701Z,93249.72
2023-08-06T06:06:39.656Z,93180.25
2023-08-06T06:07:36.557Z,93317.78
2023-08-06T06:08:35.036Z,93254.16
2023-08-06T06:09:31.878Z,93279.94
2023-08-06T06:10:29.182Z,93285.97
2023-08-06T06:11:26.044Z,93253.81
2023-08-06T06:12:23.636Z,93323.41
2023-08-06T06:13:20.458Z,93330.31
2023-08-06T06:14:20.426Z,93300.25
2023-08-06T06:15:17.403Z,93325.94
2023-08-06T06:16:14.453Z,93299.25
2023-08-06T06:17:11.360Z,93334.66
2023-08-06T06:18:08.271Z,93294.09
2023-08-06T06:19:05.197Z,93336.25
2023-08-06T06:20:02.169Z,93289.97
2023-08-06T06:20:59.731Z,93327.47
2023-08-06T06:21:59.050Z,93291.63
2023-08-06T06:22:55.938Z,93285.69
2023-08-06T06:23:52.822Z,93305.94
2023-08-06T06:24:49.653Z,93295.94
2023-08-06T06:25:52.845Z,93345.06
2023-08-06T06:26:49.706Z,93353.38
2023-08-06T06:27:46.525Z,93348.91
2023-08-06T06:28:43.378Z,93331.50
2023-08-06T06:29:40.641Z,93294.75
2023-08-06T06:30:37.509Z,93312.53
2023-08-06T06:31:34.389Z,93338.06
2023-08-06T06:32:31.258Z,93372.31
2023-08-06T06:33:28.430Z,93320.28
2023-08-06T06:34:25.233Z,93273.63
2023-08-06T06:35:22.191Z,93304.03
2023-08-06T06:36:19.012Z,93317.19
2023-08-06T06:37:15.850Z,93341.66
2023-08-06T06:38:12.678Z,93374.66
2023-08-06T06:39:09.619Z,93381.81
2023-08-06T06:40:07.074Z,93301.75
2023-08-06T06:41:04.656Z,93323.53
2023-08-06T06:42:01.501Z,93353.53
2023-08-06T06:43:01.176Z,93368.56
2023-08-06T06:44:00.155Z,93392.94
2023-08-06T06:44:57.323Z,93396.56
2023-08-06T06:45:56.891Z,93307.41
2023-08-06T06:46:53.771Z,93395.53
2023-08-06T06:47:50.724Z,93345.13
2023-08-06T06:48:47.590Z,93313.34
2023-08-06T06:49:44.471Z,93343.53
2023-08-06T06:50:41.388Z,93398.16
2023-08-06T06:51:40.093Z,93392.53
2023-08-06T06:52:38.455Z,93393.41
2023-08-06T06:53:35.337Z,93402.44
2023-08-06T06:54:32.250Z,93399.84
2023-08-06T06:55:29.195Z,93337.78
2023-08-06T06:56:26.071Z,93265.09
2023-08-06T06:57:22.899Z,93353.31
2023-08-06T06:58:19.737Z,93379.53
2023-08-06T06:59:16.567Z,93350.34
2023-08-06T07:00:13.818Z,93324.50
2023-08-06T07:01:12.999Z,93356.25
2023-08-06T07:02:10.012Z,93356.88
2023-08-06T07:03:06.899Z,93425.25
2023-08-06T07:04:06.096Z,93386.34
2023-08-06T07:05:03.036Z,93419.91
2023-08-06T07:06:00.877Z,93431.75
2023-08-06T07:06:57.709Z,93360.19
2023-08-06T07:07:54.513Z,93330.72
2023-08-06T07:08:51.361Z,93409.88
2023-08-06T07:09:48.230Z,93420.53
2023-08-06T07:10:45.240Z,93416.38
2023-08-06T07:11:44.885Z,93435.69
2023-08-06T07:12:41.818Z,93404.38
2023-08-06T07:13:38.792Z,93440.94
2023-08-06T07:14:36.008Z,93305.00
2023-08-06T07:15:33.145Z,93411.09
2023-08-06T07:16:30.632Z,93249.22
2023-08-06T07:17:27.593Z,93442.25
2023-08-06T07:18:25.051Z,93397.59
2023-08-06T07:19:22.194Z,93417.38
2023-08-06T07:20:19.115Z,93337.47
2023-08-06T07:21:15.967Z,93433.28
2023-08-06T07:22:12.805Z,93416.59
2023-08-06T07:23:09.619Z,93350.75
2023-08-06T07:24:06.534Z,93437.66
2023-08-06T07:25:03.646Z,93448.56
2023-08-06T07:26:00.577Z,93424.13
2023-08-06T07:26:57.422Z,93361.06
2023-08-06T07:27:54.612Z,93451.72
2023-08-06T07:28:51.439Z,93414.16
2023-08-06T07:29:49.537Z,93392.91
2023-08-06T07:30:47.107Z,93382.19
2023-08-06T07:31:43.996Z,93383.19
2023-08-06T07:32:40.926Z,93374.06
2023-08-06T07:33:37.868Z,93372.34
2023-08-06T07:34:34.781Z,93354.16
2023-08-06T07:35:31.683Z,93450.66
2023-08-06T07:36:28.824Z,93380.69
2023-08-06T07:37:25.710Z,93462.63
2023-08-06T07:38:22.941Z,93343.72
2023-08-06T07:39:20.002Z,93436.25
2023-08-06T07:40:17.033Z,93358.72
2023-08-06T07:41:13.833Z,93461.44
2023-08-06T07:42:12.161Z,93409.59
2023-08-06T07:43:09.051Z,93390.13
2023-08-06T07:44:05.964Z,93468.63
2023-08-06T07:45:03.261Z,93382.91
2023-08-06T07:46:01.534Z,93453.19
2023-08-06T07:46:58.714Z,93437.25
2023-08-06T07:47:55.677Z,93325.13
2023-08-06T07:48:52.573Z,93462.41
2023-08-06T07:49:49.590Z,93452.06
2023-08-06T07:50:51.494Z,93321.03
2023-08-06T07:51:48.397Z,93367.91
2023-08-06T07:52:45.297Z,93386.50
2023-08-06T07:53:42.208Z,93395.91
2023-08-06T07:54:39.278Z,93411.84
2023-08-06T07:55:36.183Z,93428.25
2023-08-06T07:56:33.197Z,93435.56
2023-08-06T07:57:30.232Z,93462.88
2023-08-06T07:58:28.174Z,93390.81
2023-08-06T07:59:24.970Z,93403.19
2023-08-06T08:00:21.930Z,93454.50
2023-08-06T08:01:18.834Z,93438.25
2023-08-06T08:02:15.698Z,93323.69
2023-08-06T08:03:21.448Z,93379.66
2023-08-06T08:04:18.393Z,93317.13
2023-08-06T08:05:15.715Z,93458.19
2023-08-06T08:06:12.664Z,93451.28
2023-08-06T08:07:11.166Z,93426.53
2023-08-06T08:08:08.693Z,93307.16
2023-08-06T08:09:05.572Z,93451.53
2023-08-06T08:10:02.489Z,93465.41
2023-08-06T08:11:02.169Z,93459.13
2023-08-06T08:12:01.354Z,93287.13
2023-08-06T08:12:58.527Z,93464.59
2023-08-06T08:13:55.364Z,93466.44
2023-08-06T08:14:52.185Z,93468.59
2023-08-06T08:15:49.072Z,93476.69
2023-08-06T08:16:46.002Z,93463.44
2023-08-06T08:17:43.153Z,93381.72
2023-08-06T08:18:39.985Z,93422.28
2023-08-06T08:19:36.915Z,93406.41
2023-08-06T08:20:36.322Z,93375.81
2023-08-06T08:21:33.217Z,93448.41
2023-08-06T08:22:30.010Z,93468.78
2023-08-06T08:23:27.043Z,93406.91
2023-08-06T08:24:26.792Z,93378.13
2023-08-06T08:25:23.812Z,93438.59
2023-08-06T08:26:20.643Z,93448.00
2023-08-06T08:27:17.506Z,93462.00
2023-08-06T08:28:14.405Z,93443.06
2023-08-06T08:29:11.199Z,93441.50
2023-08-06T08:30:08.504Z,93445.94
2023-08-06T08:31:10.232Z,93465.94
2023-08-06T08:32:07.380Z,93467.50
2023-08-06T08:33:04.245Z,93350.22
2023-08-06T08:34:02.169Z,93469.41
2023-08-06T08:34:59.134Z,93405.38
2023-08-06T08:35:55.970Z,93411.81
2023-08-06T08:36:52.783Z,93310.06
2023-08-06T08:37:50.100Z,93458.59
2023-08-06T08:38:46.891Z,93401.13
2023-08-06T08:39:43.816Z,93479.63
2023-08-06T08:40:50.660Z,93385.31
2023-08-06T08:41:47.601Z,93472.41
2023-08-06T08:42:45.049Z,93412.25
2023-08-06T08:43:43.396Z,93410.75
2023-08-06T08:44:42.211Z,93406.75
2023-08-06T08:45:43.486Z,93237.75
2023-08-06T08:46:42.694Z,93407.22
2023-08-06T08:47:43.157Z,93448.44
2023-08-06T08:48:40.117Z,93283.22
2023-08-06T08:49:38.241Z,93389.63
2023-08-06T08:50:35.749Z,93376.31
2023-08-06T08:51:34.460Z,93402.56
2023-08-06T08:52:35.699Z,93458.75
2023-08-06T08:53:32.912Z,93348.88
2023-08-06T08:54:32.129Z,93256.97
2023-08-06T08:55:29.448Z,93451.69
2023-08-06T08:56:26.361Z,93453.59
2023-08-06T08:57:23.353Z,93420.72
2023-08-06T08:58:20.250Z,93418.38
2023-08-06T08:59:17.110Z,93400.66
2023-08-06T09:00:15.469Z,93398.56
2023-08-06T09:01:12.732Z,93395.72
2023-08-06T09:02:13.980Z,93449.31
2023-08-06T09:03:11.771Z,93331.53
2023-08-06T09:04:10.458Z,93463.25
2023-08-06T09:05:09.263Z,93391.06
2023-08-06T09:06:07.465Z,93395.78
2023-08-06T09:07:08.107Z,93378.94
2023-08-06T09:08:06.253Z,93392.16
2023-08-06T09:09:18.095Z,93443.63
2023-08-06T09:10:18.846Z,93373.81
2023-08-06T09:11:17.423Z,93456.97
2023-08-06T09:12:17.352Z,93352.50
2023-08-06T09:13:15.120Z,93458.28
2023-08-06T09:14:13.245Z,93406.47
2023-08-06T09:15:10.221Z,93420.63
2023-08-06T09:16:07.646Z,93431.94
2023-08-06T09:17:05.769Z,93443.13
2023-08-06T09:18:10.921Z,93393.06
2023-08-06T09:19:16.727Z,93460.13
2023-08-06T09:20:15.606Z,93450.81
2023-08-06T09:21:17.475Z,93382.94
2023-08-06T09:22:15.191Z,93456.31
2023-08-06T09:23:12.376Z,93449.97
2023-08-06T09:24:13.737Z,93400.44
2023-08-06T09:25:11.242Z,93474.72
2023-08-06T09:26:08.222Z,93400.63
2023-08-06T09:27:05.106Z,93429.06
2023-08-06T09:28:03.833Z,93357.88
2023-08-06T09:29:01.145Z,93451.41
2023-08-06T09:29:57.949Z,93459.31
2023-08-06T09:30:57.497Z,93329.28
2023-08-06T09:31:55.131Z,93429.84
2023-08-06T09:32:52.655Z,93450.38
2023-08-06T09:33:50.614Z,93462.00
2023-08-06T09:34:47.492Z,93455.78
2023-08-06T09:35:44.409Z,93382.44
2023-08-06T09:36:43.302Z,93395.03
2023-08-06T09:37:40.139Z,93403.03
2023-08-06T09:38:41.549Z,93421.97
2023-08-06T09:39:44.170Z,93458.50
2023-08-06T09:40:41.765Z,93327.28
2023-08-06T09:41:38.588Z,93350.03
2023-08-06T09:42:37.971Z,93363.59
2023-08-06T09:43:42.435Z,93403.47
2023-08-06T09:44:42.514Z,93442.59
2023-08-06T09:45:40.054Z,93382.00
2023-08-06T09:46:36.925Z,93325.06
2023-08-06T09:47:34.005Z,93458.19
2023-08-06T09:48:31.049Z,93375.13
2023-08-06T09:49:48.083Z,93452.22
2023-08-06T09:50:46.737Z,93430.66
2023-08-06T09:51:44.401Z,93460.38
2023-08-06T09:52:43.712Z,93443.19
2023-08-06T09:53:41.925Z,93460.38
2023-08-06T09:54:39.651Z,93477.28
2023-08-06T09:55:36.620Z,93445.97
2023-08-06T09:56:38.864Z,93349.03
2023-08-06T09:57:36.750Z,93467.09
2023-08-06T09:58:34.390Z,93452.06
2023-08-06T09:59:33.842Z,93458.75
2023-08-06T10:00:35.703Z,93402.59
2023-08-06T10:01:40.237Z,93402.03
2023-08-06T10:02:40.949Z,93344.84
2023-08-06T10:03:38.079Z,93473.50
2023-08-06T10:04:41.146Z,93412.63
2023-08-06T10:05:39.991Z,93452.75
2023-08-06T10:06:37.650Z,93474.91
2023-08-06T10:07:35.132Z,93428.41
2023-08-06T10:08:31.972Z,93460.63
2023-08-06T10:09:28.805Z,93416.56
2023-08-06T10:10:28.261Z,93489.38
2023-08-06T10:11:26.892Z,93479.53
2023-08-06T10:12:26.611Z,93462.16
2023-08-06T10:13:25.629Z,93387.22
2023-08-06T10:14:31.354Z,93482.75
2023-08-06T10:15:32.344Z,93487.53
2023-08-06T10:16:30.773Z,93485.09
2023-08-06T10:17:40.988Z,93456.47
2023-08-06T10:18:44.745Z,93440.75
2023-08-06T10:19:41.847Z,93486.53
2023-08-06T10:20:39.022Z,93483.91
2023-08-06T10:21:35.885Z,93426.25
2023-08-06T10:22:34.672Z,93417.91
2023-08-06T10:23:36.626Z,93459.34
2023-08-06T10:24:50.128Z,93478.44
2023-08-06T10:25:56.943Z,93428.09
2023-08-06T10:26:59.813Z,93402.41
2023-08-06T10:27:57.382Z,93392.56
2023-08-06T10:28:54.476Z,93404.59
2023-08-06T10:29:51.700Z,93406.69
2023-08-06T10:30:49.238Z,93485.66
2023-08-06T10:32:01.616Z,93495.44
2023-08-06T10:33:08.284Z,93495.72
2023-08-06T10:34:05.166Z,93447.09
2023-08-06T10:35:02.438Z,93431.50
2023-08-06T10:36:05.899Z,93357.25
2023-08-06T10:37:03.025Z,93416.75
2023-08-06T10:38:08.673Z,93502.41
2023-08-06T10:39:07.073Z,93418.28
2023-08-06T10:40:07.246Z,93471.97
2023-08-06T10:41:05.435Z,93419.34
2023-08-06T10:42:02.941Z,93486.22
2023-08-06T10:43:03.874Z,93431.31
2023-08-06T10:44:12.827Z,93434.66
2023-08-06T10:45:17.079Z,93509.69
2023-08-06T10:46:24.543Z,93496.25
2023-08-06T10:47:28.567Z,93501.28
2023-08-06T10:48:42.277Z,93316.28
2023-08-06T10:49:39.281Z,93441.63
2023-08-06T10:50:36.086Z,93438.56
2023-08-06T10:51:32.873Z,93480.94
2023-08-06T10:52:30.379Z,93410.53
2023-08-06T10:53:27.358Z,93494.13
2023-08-06T10:54:24.681Z,93389.72
2023-08-06T10:55:26.863Z,93435.50
2023-08-06T10:56:27.240Z,93517.03
2023-08-06T10:57:25.183Z,93437.56
2023-08-06T10:58:22.009Z,93527.34
2023-08-06T10:59:19.008Z,93456.84
2023-08-06T11:00:17.309Z,93549.81
2023-08-06T11:01:16.239Z,93451.66
2023-08-06T11:02:13.532Z,93529.38
2023-08-06T11:03:10.621Z,93441.22
2023-08-06T11:04:08.623Z,93444.69
2023-08-06T11:05:12.207Z,93452.59
2023-08-06T11:06:10.001Z,93520.38
2023-08-06T11:07:08.256Z,93528.38
2023-08-06T11:08:05.144Z,93461.28
2023-08-06T11:09:02.845Z,93510.69
2023-08-06T11:10:08.620Z,93521.69
2023-08-06T11:11:14.586Z,93438.97
2023-08-06T11:12:12.275Z,93272.88
2023-08-06T11:13:09.164Z,93508.00
2023-08-06T11:14:06.053Z,93500.66
2023-08-06T11:15:05.166Z,93487.59
2023-08-06T11:16:02.191Z,93509.00
2023-08-06T11:16:59.162Z,93526.22
2023-08-06T11:17:56.280Z,93412.38
2023-08-06T11:18:55.226Z,93515.13
2023-08-06T11:19:52.898Z,93495.31
2023-08-06T11:20:49.863Z,93504.75
2023-08-06T11:21:48.767Z,93431.34
2023-08-06T11:22:45.592Z,93482.34
2023-08-06T11:23:42.863Z,93510.53